Time;durP1;ratioP1;P1;durP2;ratioP2;P2;SDS_P1;SDS_P2;PMS_P1;PMS_P2;Temp;Humidity;BMP_temperature;BMP_pressure;BME280_temperature;BME280_humidity;BME280_pressure;Samples;Min_cycle;Max_cycle;Signal;HPM_P1;HPM_P2
2021/10/11 00:00:58;;;;;;;;;;;;;;;20.62;61.01;101539.50;2083590;28;985;-59
2021/10/11 00:01:58;;;;;;;;;;;;;;;20.61;59.46;101540.47;2083664;28;771;-60
2021/10/11 00:02:58;;;;;;;;;;;;;;;20.62;59.66;101539.50;2083429;28;875;-60
2021/10/11 00:03:58;;;;;;;;;;;;;;;20.61;59.62;101540.47;2083545;28;929;-60
2021/10/11 00:04:59;;;;;;;;;;;;;;;20.56;60.41;101536.06;2083622;28;981;-60
2021/10/11 00:05:59;;;;;;;;;;;;;;;20.59;59.46;101536.00;2083437;28;804;-60
2021/10/11 00:06:59;;;;;;;;;;;;;;;20.55;60.10;101538.78;2083575;28;914;-61
2021/10/11 00:07:59;;;;;;;;;;;;;;;20.55;60.65;101539.69;2083504;28;822;-60
2021/10/11 00:08:59;;;;;;;;;;;;;;;20.57;60.69;101536.94;2083587;28;902;-60
2021/10/11 00:09:59;;;;;;;;;;;;;;;20.61;60.42;101527.00;2083379;28;1363;-60
2021/10/11 00:11:00;;;;;;;;;;;;;;;20.53;60.36;101528.06;2083551;28;1044;-60
2021/10/11 00:12:00;;;;;;;;;;;;;;;20.51;60.13;101524.50;2083444;28;815;-61
2021/10/11 00:13:00;;;;;;;;;;;;;;;20.55;59.95;101523.53;2083513;28;913;-60
2021/10/11 00:14:00;;;;;;;;;;;;;;;20.55;60.85;101523.53;2083384;28;1985;-60
2021/10/11 00:15:01;;;;;;;;;;;;;;;20.55;60.34;101517.25;2083586;28;831;-60
2021/10/11 00:16:01;;;;;;;;;;;;;;;20.52;60.66;101517.31;2083284;28;887;-60
2021/10/11 00:17:01;;;;;;;;;;;;;;;20.55;60.49;101517.25;2083473;28;1069;-60
2021/10/11 00:18:02;;;;;;;;;;;;;;;20.49;60.94;101518.28;2083296;28;775;-60
2021/10/11 00:19:03;;;;;;;;;;;;;;;20.48;60.50;101521.88;2083405;28;882;-60
2021/10/11 00:20:03;;;;;;;;;;;;;;;20.47;61.03;101516.53;2083414;28;843;-60
2021/10/11 00:21:04;;;;;;;;;;;;;;;20.47;60.73;101517.41;2083304;28;962;-60
2021/10/11 00:22:04;;;;;;;;;;;;;;;20.44;61.90;101518.34;2083370;28;850;-60
2021/10/11 00:23:04;;;;;;;;;;;;;;;20.48;61.23;101520.97;2083501;28;917;-60
2021/10/11 00:24:05;;;;;;;;;;;;;;;20.43;60.90;101515.72;2083377;28;780;-60
2021/10/11 00:25:05;;;;;;;;;;;;;;;20.42;60.71;101516.63;2083445;28;1210;-60
2021/10/11 00:26:05;;;;;;;;;;;;;;;20.40;61.12;101510.41;2083409;28;758;-60
2021/10/11 00:27:06;;;;;;;;;;;;;;;20.40;61.10;101505.88;2083300;28;1024;-60
2021/10/11 00:28:06;;;;;;;;;;;;;;;20.36;62.23;101509.56;2083496;28;776;-60
2021/10/11 00:29:06;;;;;;;;;;;;;;;20.34;61.68;101508.72;2083443;28;786;-60
2021/10/11 00:30:07;;;;;;;;;;;;;;;20.32;61.51;101505.16;2083404;28;974;-60
2021/10/11 00:31:08;;;;;;;;;;;;;;;20.33;62.80;101498.00;2083431;28;1021;-60
2021/10/11 00:32:08;;;;;;;;;;;;;;;20.33;62.19;101492.63;2083255;28;795;-60
2021/10/11 00:33:08;;;;;;;;;;;;;;;20.32;62.38;101497.09;2083394;28;895;-60
2021/10/11 00:34:09;;;;;;;;;;;;;;;20.36;61.43;101492.56;2083301;28;1981;-60
2021/10/11 00:35:09;;;;;;;;;;;;;;;20.33;61.88;101495.31;2083178;28;1416;-60
2021/10/11 00:36:09;;;;;;;;;;;;;;;20.34;62.28;101494.38;2083385;28;997;-59
2021/10/11 00:37:09;;;;;;;;;;;;;;;20.34;61.99;101491.69;2083179;28;1241;-60
2021/10/11 00:38:10;;;;;;;;;;;;;;;20.36;62.18;101488.03;2083263;28;985;-60
2021/10/11 00:39:10;;;;;;;;;;;;;;;20.33;62.37;101490.78;2083299;28;1106;-60
2021/10/11 00:40:10;;;;;;;;;;;;;;;20.32;62.36;101482.78;2083163;28;1052;-60
2021/10/11 00:41:10;;;;;;;;;;;;;;;20.34;61.64;101486.31;2083344;28;831;-60
2021/10/11 00:42:11;;;;;;;;;;;;;;;20.31;63.00;101486.38;2083062;28;1021;-60
2021/10/11 00:43:11;;;;;;;;;;;;;;;20.33;61.77;101471.09;2083188;28;1013;-60
2021/10/11 00:44:11;;;;;;;;;;;;;;;20.32;62.00;101478.25;2083200;28;841;-60
2021/10/11 00:45:11;;;;;;;;;;;;;;;20.29;62.08;101473.84;2083207;28;1061;-60
2021/10/11 00:46:12;;;;;;;;;;;;;;;20.31;61.77;101470.25;2083267;28;827;-60
2021/10/11 00:47:12;;;;;;;;;;;;;;;20.31;62.86;101472.94;2083266;28;985;-60
2021/10/11 00:48:12;;;;;;;;;;;;;;;20.28;61.52;101461.31;2083156;28;1420;-60
2021/10/11 00:49:12;;;;;;;;;;;;;;;20.27;62.25;101464.06;2083268;28;1060;-60
2021/10/11 00:50:12;;;;;;;;;;;;;;;20.27;63.01;101459.53;2083234;28;887;-59
2021/10/11 00:51:12;;;;;;;;;;;;;;;20.25;62.92;101460.50;2082622;28;962;-60
2021/10/11 00:52:13;;;;;;;;;;;;;;;20.23;62.45;101452.47;2082689;28;824;-60
2021/10/11 00:53:14;;;;;;;;;;;;;;;20.25;62.98;101456.00;2083181;28;776;-60
2021/10/11 00:54:14;;;;;;;;;;;;;;;20.28;62.39;101449.69;2083174;28;1980;-60
2021/10/11 00:55:14;;;;;;;;;;;;;;;20.25;62.04;101453.31;2083268;28;838;-60
2021/10/11 00:56:15;;;;;;;;;;;;;;;20.26;61.88;101452.41;2083155;28;989;-60
2021/10/11 00:57:15;;;;;;;;;;;;;;;20.27;62.15;101451.47;2083262;28;918;-60
2021/10/11 00:58:15;;;;;;;;;;;;;;;20.23;62.77;101451.59;2082996;28;826;-60
2021/10/11 00:59:15;;;;;;;;;;;;;;;20.27;62.41;101445.22;2083219;28;965;-60
2021/10/11 01:00:15;;;;;;;;;;;;;;;20.23;62.13;101444.38;2083188;28;887;-60
2021/10/11 01:01:16;;;;;;;;;;;;;;;20.26;62.54;101441.63;2083311;28;627;-60
2021/10/11 01:02:16;;;;;;;;;;;;;;;20.31;61.81;101443.34;2083280;28;807;-60
2021/10/11 01:03:16;;;;;;;;;;;;;;;20.27;61.88;101432.63;2083057;28;1045;-60
2021/10/11 01:04:16;;;;;;;;;;;;;;;20.32;61.63;101432.53;2083043;28;1388;-60
2021/10/11 01:05:17;;;;;;;;;;;;;;;20.33;61.50;101433.44;2083145;28;986;-60
2021/10/11 01:06:17;;;;;;;;;;;;;;;20.36;61.91;101430.66;2083128;28;823;-60
2021/10/11 01:07:17;;;;;;;;;;;;;;;20.38;61.69;101434.19;2083211;28;1012;-60
2021/10/11 01:08:17;;;;;;;;;;;;;;;20.35;61.67;101428.91;2083027;28;978;-60
2021/10/11 01:09:18;;;;;;;;;;;;;;;20.36;61.37;101433.34;2082979;28;1347;-60
2021/10/11 01:10:18;;;;;;;;;;;;;;;20.35;61.18;101436.97;2083140;28;989;-60
2021/10/11 01:11:18;;;;;;;;;;;;;;;20.33;61.27;101430.72;2082762;28;1236;-59
2021/10/11 01:12:18;;;;;;;;;;;;;;;20.36;61.26;101425.28;2083035;28;997;-60
2021/10/11 01:13:18;;;;;;;;;;;;;;;20.36;60.93;101426.16;2083124;28;882;-60
2021/10/11 01:14:19;;;;;;;;;;;;;;;20.37;61.61;101427.06;2082944;28;1914;-60
2021/10/11 01:15:19;;;;;;;;;;;;;;;20.34;61.91;101428.00;2083193;28;833;-60
2021/10/11 01:16:19;;;;;;;;;;;;;;;20.36;61.97;101428.84;2083034;28;1028;-60
2021/10/11 01:17:19;;;;;;;;;;;;;;;20.35;60.95;101428.91;2083139;28;852;-60
2021/10/11 01:18:19;;;;;;;;;;;;;;;20.37;60.85;101417.16;2083107;28;799;-60
2021/10/11 01:19:20;;;;;;;;;;;;;;;20.37;61.04;101422.53;2082892;28;764;-60
2021/10/11 01:20:20;;;;;;;;;;;;;;;20.36;61.36;101420.78;2083105;28;982;-60
2021/10/11 01:21:20;;;;;;;;;;;;;;;20.37;61.00;101416.28;2083093;28;811;-60
2021/10/11 01:22:20;;;;;;;;;;;;;;;20.36;61.19;101415.38;2083037;28;997;-60
2021/10/11 01:23:25;;;;;;;;;;;;;;;20.38;61.72;101401.91;2083076;28;823;-60
2021/10/11 01:24:25;;;;;;;;;;;;;;;20.32;61.31;101408.31;2082994;28;827;-60
2021/10/11 01:25:25;;;;;;;;;;;;;;;20.36;60.75;101401.06;2083132;28;907;-60
2021/10/11 01:26:54;;;;;;;;;;;;;;;20.36;62.01;101401.94;2083164;28;926;-61
2021/10/11 01:27:55;;;;;;;;;;;;;;;20.35;60.90;101397.47;2065679;28;1230;-60
2021/10/11 01:28:55;;;;;;;;;;;;;;;20.35;61.74;101396.59;2065803;28;1150;-60
2021/10/11 01:29:55;;;;;;;;;;;;;;;20.37;61.15;101397.47;2065928;28;974;-60
2021/10/11 01:30:56;;;;;;;;;;;;;;;20.35;61.31;101399.28;2065903;28;808;-61
2021/10/11 01:31:56;;;;;;;;;;;;;;;20.36;60.74;101401.06;2065952;28;875;-61
2021/10/11 01:32:56;;;;;;;;;;;;;;;20.32;63.00;101393.97;2065755;28;903;-61
2021/10/11 01:33:56;;;;;;;;;;;;;;;20.35;61.95;101394.78;2065828;28;823;-61
2021/10/11 01:34:57;;;;;;;;;;;;;;;20.32;61.86;101392.16;2057774;28;1886;-61
2021/10/11 01:35:57;;;;;;;;;;;;;;;20.32;62.13;101392.16;2057538;28;1057;-60
2021/10/11 01:36:57;;;;;;;;;;;;;;;20.32;61.17;101385.91;2069801;28;1231;-60
2021/10/11 01:37:57;;;;;;;;;;;;;;;20.36;61.82;101393.00;2073868;28;1340;-59
2021/10/11 01:38:59;;;;;;;;;;;;;;;20.37;61.61;101384.00;2074096;28;1040;-60
2021/10/11 01:39:59;;;;;;;;;;;;;;;20.39;61.60;101385.72;2074088;28;840;-59
2021/10/11 01:40:59;;;;;;;;;;;;;;;20.44;61.35;101388.31;2065519;28;950;-59
2021/10/11 01:42:01;;;;;;;;;;;;;;;20.47;61.65;101373.88;2065753;28;827;-57
2021/10/11 01:43:01;;;;;;;;;;;;;;;20.49;61.75;101374.72;2074041;28;803;-59
2021/10/11 01:44:01;;;;;;;;;;;;;;;20.49;61.40;101377.44;2073771;28;970;-58
2021/10/11 01:45:03;;;;;;;;;;;;;;;20.50;61.01;101374.72;2073789;28;1344;-58
2021/10/11 01:46:03;;;;;;;;;;;;;;;20.47;61.34;101376.56;2073877;28;1182;-58
2021/10/11 01:47:03;;;;;;;;;;;;;;;20.48;61.86;101371.19;2074319;28;805;-59
2021/10/11 01:48:04;;;;;;;;;;;;;;;20.45;61.69;101368.56;2075470;28;876;-58
2021/10/11 01:49:04;;;;;;;;;;;;;;;20.45;62.02;101373.94;2075549;28;851;-58
2021/10/11 01:50:05;;;;;;;;;;;;;;;20.44;62.01;101364.09;2075344;28;914;-58
2021/10/11 01:51:05;;;;;;;;;;;;;;;20.48;61.40;101363.09;2075579;28;989;-58
2021/10/11 01:52:05;;;;;;;;;;;;;;;20.39;62.31;101361.50;2075216;28;890;-58
2021/10/11 01:53:06;;;;;;;;;;;;;;;20.39;62.38;101357.94;2075451;28;1180;-58
2021/10/11 01:54:06;;;;;;;;;;;;;;;20.41;62.12;101348.91;2075487;28;1894;-58
2021/10/11 01:55:07;;;;;;;;;;;;;;;20.36;61.93;101349.94;2075407;28;1344;-58
2021/10/11 01:56:07;;;;;;;;;;;;;;;20.36;61.82;101340.03;2075451;28;1191;-58
2021/10/11 01:57:07;;;;;;;;;;;;;;;20.38;61.41;101335.50;2075494;28;990;-58
2021/10/11 01:58:07;;;;;;;;;;;;;;;20.38;61.62;101338.22;2075029;28;1132;-58
2021/10/11 01:59:07;;;;;;;;;;;;;;;20.36;62.94;101328.41;2075498;28;817;-59
2021/10/11 02:00:08;;;;;;;;;;;;;;;20.36;62.16;101328.41;2069284;28;2085;-58
2021/10/11 02:01:08;;;;;;;;;;;;;;;20.37;61.86;101332.88;2067244;28;1145;-58
2021/10/11 02:02:09;;;;;;;;;;;;;;;20.37;61.50;101319.44;2067302;28;804;-58
2021/10/11 02:03:09;;;;;;;;;;;;;;;20.36;62.26;101318.53;2067270;28;997;-57
2021/10/11 02:04:09;;;;;;;;;;;;;;;20.36;62.97;101320.34;2067293;28;857;-58
2021/10/11 02:05:09;;;;;;;;;;;;;;;20.39;61.93;101320.28;2078421;28;1030;-58
2021/10/11 02:06:09;;;;;;;;;;;;;;;20.36;62.81;101315.84;2084370;28;1550;-58
2021/10/11 02:07:09;;;;;;;;;;;;;;;20.35;62.00;101315.88;2084512;28;1040;-57
2021/10/11 02:08:10;;;;;;;;;;;;;;;20.37;61.87;101314.03;2084319;28;803;-58
2021/10/11 02:09:10;;;;;;;;;;;;;;;20.34;62.84;101314.13;2084158;28;1066;-58
2021/10/11 02:10:10;;;;;;;;;;;;;;;20.32;61.78;101315.97;2084402;28;1341;-58
2021/10/11 02:11:10;;;;;;;;;;;;;;;20.32;62.39;101310.59;2084372;28;997;-58
2021/10/11 02:12:10;;;;;;;;;;;;;;;20.34;61.96;101308.75;2084385;28;839;-58
2021/10/11 02:13:11;;;;;;;;;;;;;;;20.30;62.86;101302.56;2084421;28;827;-58
2021/10/11 02:14:11;;;;;;;;;;;;;;;20.28;62.20;101299.91;2083986;28;1914;-58
2021/10/11 02:15:11;;;;;;;;;;;;;;;20.28;62.61;101299.91;2084420;28;1239;-58
2021/10/11 02:16:11;;;;;;;;;;;;;;;20.34;62.44;101297.97;2084393;28;831;-58
2021/10/11 02:17:11;;;;;;;;;;;;;;;20.32;62.71;101294.44;2084333;28;1017;-58
2021/10/11 02:18:12;;;;;;;;;;;;;;;20.32;62.59;101294.44;2084361;28;973;-58
2021/10/11 02:19:12;;;;;;;;;;;;;;;20.31;64.14;101289.97;2084347;28;878;-58
2021/10/11 02:20:12;;;;;;;;;;;;;;;20.31;63.01;101279.22;2084330;28;1348;-58
2021/10/11 02:21:12;;;;;;;;;;;;;;;20.32;61.78;101291.75;2084461;28;823;-58
2021/10/11 02:22:12;;;;;;;;;;;;;;;20.33;61.58;101283.63;2084328;28;792;-58
2021/10/11 02:23:12;;;;;;;;;;;;;;;20.33;62.38;101288.13;2084315;28;986;-58
2021/10/11 02:24:13;;;;;;;;;;;;;;;20.31;62.40;101282.81;2084239;28;828;-58
2021/10/11 02:25:13;;;;;;;;;;;;;;;20.31;62.14;101287.28;2084298;28;855;-58
2021/10/11 02:26:13;;;;;;;;;;;;;;;20.28;62.87;101273.00;2084307;28;772;-59
2021/10/11 02:27:13;;;;;;;;;;;;;;;20.30;61.88;101272.97;2084033;28;859;-59
2021/10/11 02:28:13;;;;;;;;;;;;;;;20.31;61.72;101276.53;2084262;28;796;-58
2021/10/11 02:29:14;;;;;;;;;;;;;;;20.31;62.36;101272.03;2084307;28;1153;-58
2021/10/11 02:30:14;;;;;;;;;;;;;;;20.29;62.77;101271.19;2084335;28;823;-58
2021/10/11 02:31:14;;;;;;;;;;;;;;;20.28;62.40;101273.00;2084310;28;899;-58
2021/10/11 02:32:14;;;;;;;;;;;;;;;20.29;61.34;101274.75;2084055;28;1002;-58
2021/10/11 02:33:15;;;;;;;;;;;;;;;20.32;62.36;101268.41;2084067;28;995;-58
2021/10/11 02:34:15;;;;;;;;;;;;;;;20.25;61.67;101264.13;2084216;28;1894;-58
2021/10/11 02:35:16;;;;;;;;;;;;;;;20.25;63.06;101262.31;2084220;28;695;-58
2021/10/11 02:36:16;;;;;;;;;;;;;;;20.26;62.15;101268.59;2084236;28;799;-58
2021/10/11 02:37:16;;;;;;;;;;;;;;;20.27;61.82;101257.78;2084178;28;1470;-59
2021/10/11 02:38:16;;;;;;;;;;;;;;;20.25;62.68;101264.13;2083849;28;829;-58
2021/10/11 02:39:17;;;;;;;;;;;;;;;20.29;62.51;101265.81;2084344;28;1299;-59
2021/10/11 02:40:17;;;;;;;;;;;;;;;20.28;62.08;101262.22;2084210;28;1179;-58
2021/10/11 02:41:17;;;;;;;;;;;;;;;20.27;63.23;101263.16;2084211;28;1017;-58
2021/10/11 02:42:17;;;;;;;;;;;;;;;20.27;61.92;101260.47;2084195;28;816;-58
2021/10/11 02:43:17;;;;;;;;;;;;;;;20.28;61.72;101264.91;2084257;28;922;-59
2021/10/11 02:44:17;;;;;;;;;;;;;;;20.26;62.45;101258.69;2084081;28;977;-58
2021/10/11 02:45:17;;;;;;;;;;;;;;;20.24;62.96;101252.47;2084251;28;1060;-59
2021/10/11 02:46:18;;;;;;;;;;;;;;;20.25;61.36;101256.94;2084056;28;814;-58
2021/10/11 02:47:18;;;;;;;;;;;;;;;20.23;63.00;101247.13;2084179;28;850;-59
2021/10/11 02:48:18;;;;;;;;;;;;;;;20.27;62.66;101246.13;2084134;28;988;-59
2021/10/11 02:49:18;;;;;;;;;;;;;;;20.24;61.97;101247.09;2084069;28;868;-59
2021/10/11 02:50:20;;;;;;;;;;;;;;;20.25;62.13;101237.22;2084196;28;846;-58
2021/10/11 02:51:20;;;;;;;;;;;;;;;20.23;62.79;101231.88;2084186;28;814;-59
2021/10/11 02:52:20;;;;;;;;;;;;;;;20.26;62.46;101182.50;2084080;28;1047;-59
2021/10/11 02:53:20;;;;;;;;;;;;;;;20.25;63.15;101178.91;2084149;28;795;-60
2021/10/11 02:54:21;;;;;;;;;;;;;;;20.25;62.39;101169.97;2083927;28;1886;-59
2021/10/11 02:55:21;;;;;;;;;;;;;;;20.25;62.07;101160.09;2084161;28;996;-58
2021/10/11 02:56:21;;;;;;;;;;;;;;;20.27;62.98;101166.31;2084029;28;985;-59
2021/10/11 02:57:21;;;;;;;;;;;;;;;20.22;63.37;101144.03;2083687;28;859;-59
2021/10/11 02:58:22;;;;;;;;;;;;;;;20.24;62.68;101154.75;2083900;28;767;-59
2021/10/11 02:59:22;;;;;;;;;;;;;;;20.25;61.95;101235.41;2084090;28;905;-59
2021/10/11 03:00:23;;;;;;;;;;;;;;;20.26;61.78;101207.59;2084033;28;1048;-59
2021/10/11 03:01:23;;;;;;;;;;;;;;;20.19;63.28;101200.59;2084066;28;827;-59
2021/10/11 03:02:23;;;;;;;;;;;;;;;20.20;62.26;101207.75;2083852;28;1045;-59
2021/10/11 03:03:23;;;;;;;;;;;;;;;20.21;63.30;101197.88;2084081;28;1247;-59
2021/10/11 03:04:23;;;;;;;;;;;;;;;20.17;63.06;101202.44;2084032;28;788;-59
2021/10/11 03:05:24;;;;;;;;;;;;;;;20.14;62.80;101203.41;2083891;28;760;-59
2021/10/11 03:06:24;;;;;;;;;;;;;;;20.17;63.13;101207.81;2084030;28;1475;-59
2021/10/11 03:07:24;;;;;;;;;;;;;;;20.20;62.57;101214.94;2083934;28;1040;-59
2021/10/11 03:08:24;;;;;;;;;;;;;;;20.25;62.04;101208.50;2084073;28;784;-59
2021/10/11 03:09:24;;;;;;;;;;;;;;;20.22;62.50;101210.41;2083871;28;1079;-59
2021/10/11 03:10:24;;;;;;;;;;;;;;;20.22;61.87;101207.72;2083952;28;1449;-59
2021/10/11 03:11:25;;;;;;;;;;;;;;;20.20;63.21;101218.50;2083521;28;1659;-59
2021/10/11 03:12:25;;;;;;;;;;;;;;;20.21;62.01;101224.78;2083956;28;775;-59
2021/10/11 03:13:25;;;;;;;;;;;;;;;20.23;62.22;101214.88;2083967;28;982;-59
2021/10/11 03:14:25;;;;;;;;;;;;;;;20.19;62.33;101216.72;2083977;28;1973;-59
2021/10/11 03:15:25;;;;;;;;;;;;;;;20.22;62.54;101215.78;2083873;28;713;-59
2021/10/11 03:16:26;;;;;;;;;;;;;;;20.22;61.80;101224.72;2083662;28;823;-59
2021/10/11 03:17:26;;;;;;;;;;;;;;;20.24;62.29;101220.19;2083955;28;886;-59
2021/10/11 03:18:26;;;;;;;;;;;;;;;20.21;62.15;101220.25;2083945;28;998;-59
2021/10/11 03:19:26;;;;;;;;;;;;;;;20.22;62.10;101211.28;2083882;28;1013;-59
2021/10/11 03:20:26;;;;;;;;;;;;;;;20.23;61.42;101212.16;2083925;28;989;-59
2021/10/11 03:21:27;;;;;;;;;;;;;;;20.24;62.17;101214.81;2083773;28;918;-59
2021/10/11 03:22:27;;;;;;;;;;;;;;;20.22;62.26;101195.13;2083710;28;835;-59
2021/10/11 03:23:27;;;;;;;;;;;;;;;20.19;62.15;101143.25;2083827;28;856;-59
2021/10/11 03:24:27;;;;;;;;;;;;;;;20.20;61.71;101153.94;2083841;28;792;-59
2021/10/11 03:25:27;;;;;;;;;;;;;;;20.19;62.62;101154.88;2083836;28;882;-59
2021/10/11 03:26:28;;;;;;;;;;;;;;;20.23;62.64;101145.78;2083859;28;867;-59
2021/10/11 03:27:28;;;;;;;;;;;;;;;20.23;62.64;101144.91;2083728;28;933;-59
2021/10/11 03:28:28;;;;;;;;;;;;;;;20.24;62.96;101152.06;2083836;28;1041;-59
2021/10/11 03:29:28;;;;;;;;;;;;;;;20.25;62.31;101153.84;2083837;28;993;-59
2021/10/11 03:30:28;;;;;;;;;;;;;;;20.23;62.56;101151.16;2083831;28;871;-59
2021/10/11 03:31:28;;;;;;;;;;;;;;;20.25;62.47;101143.06;2083752;28;1061;-59
2021/10/11 03:32:28;;;;;;;;;;;;;;;20.25;62.18;101146.63;2083755;28;853;-59
2021/10/11 03:33:29;;;;;;;;;;;;;;;20.24;62.20;101142.16;2083716;28;859;-59
2021/10/11 03:34:29;;;;;;;;;;;;;;;20.24;62.76;101128.72;2083705;28;1941;-59
2021/10/11 03:35:29;;;;;;;;;;;;;;;20.24;62.36;101126.03;2083734;28;981;-59
2021/10/11 03:36:29;;;;;;;;;;;;;;;20.22;62.65;101121.63;2083685;28;1415;-59
2021/10/11 03:37:29;;;;;;;;;;;;;;;20.20;62.19;101118.97;2083139;28;788;-59
2021/10/11 03:38:29;;;;;;;;;;;;;;;20.22;62.67;101122.50;2083251;28;934;-59
2021/10/11 03:39:30;;;;;;;;;;;;;;;20.22;62.13;101119.81;2083042;28;1675;-59
2021/10/11 03:40:30;;;;;;;;;;;;;;;20.24;61.59;101117.97;2083189;28;864;-59
2021/10/11 03:41:30;;;;;;;;;;;;;;;20.20;61.77;101110.03;2083705;28;985;-59
2021/10/11 03:42:30;;;;;;;;;;;;;;;20.21;62.47;101106.41;2083576;28;803;-59
2021/10/11 03:43:31;;;;;;;;;;;;;;;20.20;62.43;101102.84;2083810;28;977;-59
2021/10/11 03:44:31;;;;;;;;;;;;;;;20.19;62.60;101095.69;2083707;28;847;-59
2021/10/11 03:45:31;;;;;;;;;;;;;;;20.18;62.76;101093.91;2083390;28;910;-59
2021/10/11 03:46:32;;;;;;;;;;;;;;;20.20;63.19;101092.06;2083783;28;1040;-59
2021/10/11 03:47:32;;;;;;;;;;;;;;;20.18;62.51;101088.53;2083699;28;830;-59
2021/10/11 03:48:33;;;;;;;;;;;;;;;20.18;62.48;101091.22;2083488;28;997;-59
2021/10/11 03:49:33;;;;;;;;;;;;;;;20.18;63.28;101091.22;2083712;28;922;-59
2021/10/11 03:50:33;;;;;;;;;;;;;;;20.19;62.42;101087.63;2083738;28;1036;-59
2021/10/11 03:51:33;;;;;;;;;;;;;;;20.18;63.17;101093.91;2083571;28;768;-59
2021/10/11 03:52:33;;;;;;;;;;;;;;;20.19;62.21;101103.75;2083702;28;985;-59
2021/10/11 03:53:33;;;;;;;;;;;;;;;20.16;62.51;101103.84;2083592;28;1064;-59
2021/10/11 03:54:33;;;;;;;;;;;;;;;20.17;62.07;101100.22;2083586;28;1949;-59
2021/10/11 03:55:34;;;;;;;;;;;;;;;20.19;62.56;101108.28;2083696;28;842;-59
2021/10/11 03:56:34;;;;;;;;;;;;;;;20.19;63.10;101110.97;2083356;28;993;-59
2021/10/11 03:57:34;;;;;;;;;;;;;;;20.17;62.84;101094.84;2083469;28;997;-59
2021/10/11 03:58:34;;;;;;;;;;;;;;;20.20;62.92;101099.28;2083693;28;831;-59
2021/10/11 03:59:34;;;;;;;;;;;;;;;20.17;62.13;101093.97;2083611;28;874;-59
2021/10/11 04:00:36;;;;;;;;;;;;;;;20.20;62.05;101086.69;2083668;28;996;-59
2021/10/11 04:01:36;;;;;;;;;;;;;;;20.37;61.07;101106.88;2083525;28;867;-59
2021/10/11 04:02:36;;;;;;;;;;;;;;;20.42;61.65;101057.38;2083622;28;830;-59
2021/10/11 04:03:36;;;;;;;;;;;;;;;20.59;62.84;101054.19;2083562;28;858;-59
2021/10/11 04:04:37;;;;;;;;;;;;;;;21.14;63.13;101048.03;2083352;28;988;-59
2021/10/11 04:05:37;;;;;;;;;;;;;;;21.37;61.87;101053.59;2083642;28;820;-59
2021/10/11 04:06:37;;;;;;;;;;;;;;;21.44;63.08;101047.94;2083582;28;871;-59
2021/10/11 04:07:40;;;;;;;;;;;;;;;21.53;62.64;101044.03;2083503;28;839;-59
2021/10/11 04:08:41;;;;;;;;;;;;;;;21.59;63.25;101049.22;2083591;28;829;-59
2021/10/11 04:09:44;;;;;;;;;;;;;;;21.68;63.53;101052.56;2083005;28;1102;-59
2021/10/11 04:11:50;;;;;;;;;;;;;;;21.81;63.51;101074.59;2083687;28;814;-59
2021/10/11 04:12:53;;;;;;;;;;;;;;;21.84;62.13;101072.69;2083545;28;973;-59
2021/10/11 04:13:53;;;;;;;;;;;;;;;21.94;62.47;101081.31;2083553;28;906;-59
2021/10/11 04:14:53;;;;;;;;;;;;;;;21.98;62.00;101080.28;2083449;28;1955;-60
2021/10/11 04:15:53;;;;;;;;;;;;;;;22.04;61.58;101077.34;2083432;28;796;-59
2021/10/11 04:16:54;;;;;;;;;;;;;;;22.10;62.21;101075.38;2083675;28;638;-59
2021/10/11 04:17:55;;;;;;;;;;;;;;;22.16;61.76;101061.66;2083345;28;772;-59
2021/10/11 04:18:55;;;;;;;;;;;;;;;22.19;61.66;101050.75;2083545;28;795;-59
2021/10/11 04:19:56;;;;;;;;;;;;;;;22.24;61.62;101048.78;2083358;28;776;-59
2021/10/11 04:20:56;;;;;;;;;;;;;;;22.25;60.92;101039.75;2083557;28;849;-59
2021/10/11 04:21:56;;;;;;;;;;;;;;;22.28;61.86;101053.13;2083508;28;891;-59
2021/10/11 04:22:56;;;;;;;;;;;;;;;22.32;60.94;101049.38;2083486;28;906;-59
2021/10/11 04:23:56;;;;;;;;;;;;;;;22.36;60.02;101053.72;2083386;28;1017;-59
2021/10/11 04:24:57;;;;;;;;;;;;;;;22.36;59.62;101050.13;2083438;28;768;-59
2021/10/11 04:25:57;;;;;;;;;;;;;;;22.33;59.69;101050.25;2083418;28;1040;-59
2021/10/11 04:26:57;;;;;;;;;;;;;;;22.34;59.11;101047.50;2083482;28;826;-59
2021/10/11 04:27:57;;;;;;;;;;;;;;;22.34;59.20;101046.59;2083200;28;1028;-59
2021/10/11 04:28:57;;;;;;;;;;;;;;;22.38;58.44;101048.25;2083430;28;842;-59
2021/10/11 04:29:58;;;;;;;;;;;;;;;22.33;58.57;101050.25;2083413;28;846;-59
2021/10/11 04:30:58;;;;;;;;;;;;;;;22.29;59.79;101038.69;2083472;28;973;-59
2021/10/11 04:31:58;;;;;;;;;;;;;;;22.34;58.54;101038.50;2083386;28;785;-59
2021/10/11 04:32:58;;;;;;;;;;;;;;;22.33;57.72;101040.34;2083049;28;878;-59
2021/10/11 04:33:58;;;;;;;;;;;;;;;22.33;57.73;101043.03;2083356;28;965;-59
2021/10/11 04:35:02;;;;;;;;;;;;;;;22.29;57.87;101041.41;2083288;28;1894;-59
2021/10/11 04:36:02;;;;;;;;;;;;;;;22.32;57.44;101043.09;2083231;28;819;-59
2021/10/11 04:37:02;;;;;;;;;;;;;;;22.27;56.79;101039.69;2083324;28;1228;-59
2021/10/11 04:38:02;;;;;;;;;;;;;;;22.28;57.33;101039.63;2083320;28;1017;-60
2021/10/11 04:39:03;;;;;;;;;;;;;;;22.25;57.78;101037.06;2083194;28;1005;-59
2021/10/11 04:40:03;;;;;;;;;;;;;;;22.26;56.63;101035.22;2083455;28;831;-59
2021/10/11 04:41:03;;;;;;;;;;;;;;;22.31;57.37;101036.81;2083398;28;764;-59
2021/10/11 04:42:03;;;;;;;;;;;;;;;22.27;57.35;101035.19;2083346;28;982;-59
2021/10/11 04:43:04;;;;;;;;;;;;;;;22.23;56.52;101033.53;2083335;28;871;-59
2021/10/11 04:44:04;;;;;;;;;;;;;;;22.25;56.80;101038.84;2083086;28;816;-59
2021/10/11 04:45:04;;;;;;;;;;;;;;;22.29;57.04;101038.69;2083367;28;1001;-59
2021/10/11 04:46:04;;;;;;;;;;;;;;;22.30;55.95;101034.16;2082598;28;1431;-59
2021/10/11 04:47:04;;;;;;;;;;;;;;;22.28;59.67;101041.44;2082593;28;823;-59
2021/10/11 04:48:06;;;;;;;;;;;;;;;22.27;56.63;101031.59;2083293;28;927;-59
2021/10/11 04:49:06;;;;;;;;;;;;;;;22.30;56.49;101035.06;2083339;28;779;-59
2021/10/11 04:50:07;;;;;;;;;;;;;;;22.32;56.91;101033.19;2083276;28;792;-59
2021/10/11 04:51:07;;;;;;;;;;;;;;;22.29;56.53;101032.41;2083304;28;1215;-59
2021/10/11 04:52:07;;;;;;;;;;;;;;;22.28;56.98;101031.53;2083157;28;1398;-60
2021/10/11 04:53:09;;;;;;;;;;;;;;;22.31;55.31;101031.44;2083298;28;989;-59
2021/10/11 04:54:09;;;;;;;;;;;;;;;22.33;58.17;101029.56;2083147;28;851;-60
2021/10/11 04:55:09;;;;;;;;;;;;;;;22.33;56.42;101023.25;2082985;28;1945;-59
2021/10/11 04:56:09;;;;;;;;;;;;;;;22.37;57.59;101033.00;2083158;28;867;-59
2021/10/11 04:57:09;;;;;;;;;;;;;;;22.32;55.62;101032.28;2083234;28;834;-59
2021/10/11 04:58:10;;;;;;;;;;;;;;;22.30;57.30;101026.97;2083218;28;1273;-60
2021/10/11 04:59:10;;;;;;;;;;;;;;;22.34;56.85;101028.63;2083283;28;1051;-59
2021/10/11 05:00:12;;;;;;;;;;;;;;;22.28;58.30;101036.03;2082978;28;1056;-59
2021/10/11 05:01:12;;;;;;;;;;;;;;;22.39;57.28;101027.53;2083290;28;1149;-60
2021/10/11 05:02:12;;;;;;;;;;;;;;;22.38;57.72;101023.06;2083206;28;1160;-60
2021/10/11 05:03:12;;;;;;;;;;;;;;;22.35;56.48;101019.56;2082987;28;875;-60
2021/10/11 05:04:13;;;;;;;;;;;;;;;22.39;56.09;101019.44;2083197;28;1340;-60
2021/10/11 05:05:13;;;;;;;;;;;;;;;22.44;56.38;101014.78;2083207;28;981;-59
2021/10/11 05:06:13;;;;;;;;;;;;;;;22.38;57.03;101009.56;2083166;28;957;-59
2021/10/11 05:07:13;;;;;;;;;;;;;;;22.36;57.42;101013.25;2083206;28;950;-60
2021/10/11 05:08:13;;;;;;;;;;;;;;;22.37;57.73;101003.31;2082827;28;998;-59
2021/10/11 05:09:13;;;;;;;;;;;;;;;22.36;56.20;100999.75;2083013;28;1351;-60
2021/10/11 05:10:14;;;;;;;;;;;;;;;22.36;57.63;100997.06;2083188;28;1025;-59
2021/10/11 05:11:14;;;;;;;;;;;;;;;22.33;57.10;100999.88;2083163;28;1306;-60
2021/10/11 05:12:14;;;;;;;;;;;;;;;22.36;56.86;100988.94;2083164;28;1135;-59
2021/10/11 05:13:14;;;;;;;;;;;;;;;22.42;57.09;100992.31;2083010;28;1041;-60
2021/10/11 05:14:14;;;;;;;;;;;;;;;22.39;57.09;100993.34;2083150;28;1922;-59
2021/10/11 05:15:15;;;;;;;;;;;;;;;22.36;58.84;100991.66;2083140;28;989;-60
2021/10/11 05:16:15;;;;;;;;;;;;;;;22.38;57.42;100986.19;2083025;28;801;-59
2021/10/11 05:17:15;;;;;;;;;;;;;;;22.45;57.37;100984.13;2083206;28;855;-60
2021/10/11 05:18:15;;;;;;;;;;;;;;;22.41;58.08;100980.66;2083153;28;827;-59